sensor_id;sensor_type;location;lat;lon;timestamp;P1;durP1;ratioP1;P2;durP2;ratioP2
75922;SDS011;64602;47.542;19.090;2023-05-14T05:30:38;5.05;;;3.70;;
75922;SDS011;64602;47.542;19.090;2023-05-14T05:35:40;6.45;;;4.10;;
75922;SDS011;64602;47.542;19.090;2023-05-14T05:40:43;5.80;;;4.67;;
75922;SDS011;64602;47.542;19.090;2023-05-14T05:45:46;6.97;;;4.37;;
75922;SDS011;64602;47.542;19.090;2023-05-14T05:50:48;5.72;;;4.05;;
75922;SDS011;64602;47.542;19.090;2023-05-14T05:55:51;8.03;;;3.87;;
75922;SDS011;64602;47.542;19.090;2023-05-14T06:00:53;6.23;;;3.90;;
75922;SDS011;64602;47.542;19.090;2023-05-14T06:05:55;5.28;;;3.78;;
75922;SDS011;64602;47.542;19.090;2023-05-14T06:10:58;6.53;;;4.40;;
75922;SDS011;64602;47.542;19.090;2023-05-14T06:16:00;6.03;;;4.00;;
75922;SDS011;64602;47.542;19.090;2023-05-14T06:21:02;5.78;;;4.20;;
75922;SDS011;64602;47.542;19.090;2023-05-14T06:26:04;6.90;;;4.10;;
75922;SDS011;64602;47.542;19.090;2023-05-14T06:31:06;6.27;;;4.17;;
75922;SDS011;64602;47.542;19.090;2023-05-14T06:36:08;6.15;;;4.05;;
75922;SDS011;64602;47.542;19.090;2023-05-14T06:41:11;8.57;;;5.07;;
75922;SDS011;64602;47.542;19.090;2023-05-14T06:46:13;7.07;;;4.43;;
75922;SDS011;64602;47.542;19.090;2023-05-14T06:51:15;6.10;;;4.50;;
75922;SDS011;64602;47.542;19.090;2023-05-14T06:56:17;8.32;;;5.00;;
75922;SDS011;64602;47.542;19.090;2023-05-14T07:01:19;7.30;;;5.05;;
75922;SDS011;64602;47.542;19.090;2023-05-14T07:06:23;5.93;;;4.33;;
75922;SDS011;64602;47.542;19.090;2023-05-14T07:11:25;6.70;;;4.65;;
75922;SDS011;64602;47.542;19.090;2023-05-14T07:16:27;6.57;;;4.53;;
75922;SDS011;64602;47.542;19.090;2023-05-14T07:21:29;6.57;;;4.70;;
75922;SDS011;64602;47.542;19.090;2023-05-14T07:26:32;7.25;;;5.05;;
75922;SDS011;64602;47.542;19.090;2023-05-14T07:31:34;7.60;;;4.60;;
75922;SDS011;64602;47.542;19.090;2023-05-14T07:36:37;7.57;;;5.23;;
75922;SDS011;64602;47.542;19.090;2023-05-14T07:41:39;6.50;;;4.93;;
75922;SDS011;64602;47.542;19.090;2023-05-14T07:46:41;7.53;;;4.43;;
75922;SDS011;64602;47.542;19.090;2023-05-14T07:51:43;10.53;;;5.03;;
75922;SDS011;64602;47.542;19.090;2023-05-14T07:56:45;6.47;;;4.80;;
75922;SDS011;64602;47.542;19.090;2023-05-14T08:01:48;7.12;;;4.80;;
75922;SDS011;64602;47.542;19.090;2023-05-14T08:06:50;6.75;;;3.95;;
75922;SDS011;64602;47.542;19.090;2023-05-14T08:11:52;7.37;;;4.53;;
75922;SDS011;64602;47.542;19.090;2023-05-14T08:16:54;7.40;;;4.43;;
75922;SDS011;64602;47.542;19.090;2023-05-14T08:21:57;7.18;;;4.50;;
75922;SDS011;64602;47.542;19.090;2023-05-14T08:26:59;6.97;;;5.10;;
75922;SDS011;64602;47.542;19.090;2023-05-14T08:32:01;8.00;;;4.85;;
75922;SDS011;64602;47.542;19.090;2023-05-14T08:37:20;6.80;;;4.60;;
75922;SDS011;64602;47.542;19.090;2023-05-14T08:42:23;7.10;;;4.73;;
75922;SDS011;64602;47.542;19.090;2023-05-14T08:47:26;8.63;;;4.87;;
75922;SDS011;64602;47.542;19.090;2023-05-14T08:52:33;7.05;;;4.60;;
75922;SDS011;64602;47.542;19.090;2023-05-14T08:57:36;7.10;;;4.80;;
75922;SDS011;64602;47.542;19.090;2023-05-14T09:02:39;8.83;;;5.70;;
75922;SDS011;64602;47.542;19.090;2023-05-14T09:07:42;8.07;;;4.57;;
75922;SDS011;64602;47.542;19.090;2023-05-14T09:12:44;8.48;;;5.72;;
75922;SDS011;64602;47.542;19.090;2023-05-14T09:17:47;8.57;;;5.43;;
75922;SDS011;64602;47.542;19.090;2023-05-14T09:22:52;9.02;;;5.93;;
75922;SDS011;64602;47.542;19.090;2023-05-14T09:27:55;8.15;;;5.40;;
75922;SDS011;64602;47.542;19.090;2023-05-14T09:32:59;7.43;;;5.50;;
75922;SDS011;64602;47.542;19.090;2023-05-14T09:38:02;7.00;;;5.27;;
75922;SDS011;64602;47.542;19.090;2023-05-14T09:43:04;8.70;;;5.45;;
75922;SDS011;64602;47.542;19.090;2023-05-14T09:48:07;7.80;;;5.30;;
75922;SDS011;64602;47.542;19.090;2023-05-14T09:53:09;9.30;;;5.40;;
75922;SDS011;64602;47.542;19.090;2023-05-14T09:58:12;7.72;;;5.37;;
75922;SDS011;64602;47.542;19.090;2023-05-14T10:03:15;8.32;;;5.90;;
75922;SDS011;64602;47.542;19.090;2023-05-14T10:08:32;9.50;;;5.47;;
75922;SDS011;64602;47.542;19.090;2023-05-14T10:13:36;9.15;;;6.00;;
75922;SDS011;64602;47.542;19.090;2023-05-14T10:18:43;7.22;;;5.85;;
75922;SDS011;64602;47.542;19.090;2023-05-14T10:23:49;10.03;;;6.00;;
75922;SDS011;64602;47.542;19.090;2023-05-14T10:28:52;9.90;;;7.23;;
75922;SDS011;64602;47.542;19.090;2023-05-14T10:33:54;9.50;;;7.30;;
75922;SDS011;64602;47.542;19.090;2023-05-14T10:39:02;10.05;;;6.62;;
75922;SDS011;64602;47.542;19.090;2023-05-14T10:44:07;8.47;;;6.30;;
75922;SDS011;64602;47.542;19.090;2023-05-14T10:49:10;10.02;;;6.75;;
75922;SDS011;64602;47.542;19.090;2023-05-14T10:54:14;8.32;;;6.37;;
75922;SDS011;64602;47.542;19.090;2023-05-14T10:59:17;7.80;;;5.80;;
75922;SDS011;64602;47.542;19.090;2023-05-14T11:04:22;9.07;;;6.37;;
75922;SDS011;64602;47.542;19.090;2023-05-14T11:09:24;9.10;;;6.60;;
75922;SDS011;64602;47.542;19.090;2023-05-14T11:14:26;10.67;;;6.23;;
75922;SDS011;64602;47.542;19.090;2023-05-14T11:19:29;8.87;;;6.57;;
75922;SDS011;64602;47.542;19.090;2023-05-14T11:24:31;9.30;;;7.00;;
75922;SDS011;64602;47.542;19.090;2023-05-14T11:29:34;11.00;;;7.82;;
75922;SDS011;64602;47.542;19.090;2023-05-14T11:34:37;8.70;;;6.93;;
75922;SDS011;64602;47.542;19.090;2023-05-14T11:39:46;10.23;;;7.37;;
75922;SDS011;64602;47.542;19.090;2023-05-14T11:44:50;12.65;;;7.90;;
75922;SDS011;64602;47.542;19.090;2023-05-14T11:49:54;11.80;;;8.00;;
75922;SDS011;64602;47.542;19.090;2023-05-14T11:54:56;10.82;;;7.70;;
75922;SDS011;64602;47.542;19.090;2023-05-14T11:59:59;12.05;;;6.50;;
75922;SDS011;64602;47.542;19.090;2023-05-14T12:05:01;10.37;;;6.87;;
75922;SDS011;64602;47.542;19.090;2023-05-14T12:10:03;10.37;;;6.53;;
75922;SDS011;64602;47.542;19.090;2023-05-14T12:15:10;8.98;;;5.95;;
75922;SDS011;64602;47.542;19.090;2023-05-14T12:20:14;9.70;;;6.78;;
75922;SDS011;64602;47.542;19.090;2023-05-14T12:25:16;10.10;;;6.40;;
75922;SDS011;64602;47.542;19.090;2023-05-14T12:30:18;10.10;;;6.37;;
75922;SDS011;64602;47.542;19.090;2023-05-14T12:35:25;10.98;;;6.97;;
75922;SDS011;64602;47.542;19.090;2023-05-14T12:40:27;10.60;;;6.60;;
75922;SDS011;64602;47.542;19.090;2023-05-14T12:45:30;10.90;;;6.95;;
75922;SDS011;64602;47.542;19.090;2023-05-14T12:50:32;11.05;;;6.93;;
75922;SDS011;64602;47.542;19.090;2023-05-14T12:55:34;11.03;;;6.97;;
75922;SDS011;64602;47.542;19.090;2023-05-14T13:00:36;12.73;;;6.63;;
75922;SDS011;64602;47.542;19.090;2023-05-14T13:05:38;12.75;;;7.20;;
75922;SDS011;64602;47.542;19.090;2023-05-14T13:10:40;9.85;;;7.03;;
75922;SDS011;64602;47.542;19.090;2023-05-14T13:15:43;9.97;;;6.53;;
75922;SDS011;64602;47.542;19.090;2023-05-14T13:20:47;10.43;;;7.18;;
75922;SDS011;64602;47.542;19.090;2023-05-14T13:25:49;10.77;;;6.65;;
75922;SDS011;64602;47.542;19.090;2023-05-14T13:36:23;12.02;;;7.70;;
75922;SDS011;64602;47.542;19.090;2023-05-14T13:41:25;9.32;;;6.60;;
75922;SDS011;64602;47.542;19.090;2023-05-14T13:46:27;10.83;;;6.80;;
75922;SDS011;64602;47.542;19.090;2023-05-14T13:51:29;7.97;;;6.03;;
75922;SDS011;64602;47.542;19.090;2023-05-14T13:56:32;8.82;;;6.60;;
75922;SDS011;64602;47.542;19.090;2023-05-14T14:01:34;9.63;;;6.20;;
75922;SDS011;64602;47.542;19.090;2023-05-14T14:06:36;9.07;;;5.87;;
75922;SDS011;64602;47.542;19.090;2023-05-14T14:11:39;11.00;;;6.75;;
75922;SDS011;64602;47.542;19.090;2023-05-14T14:16:41;10.07;;;6.72;;
75922;SDS011;64602;47.542;19.090;2023-05-14T14:21:44;10.47;;;7.00;;
75922;SDS011;64602;47.542;19.090;2023-05-14T14:26:46;10.10;;;6.70;;
75922;SDS011;64602;47.542;19.090;2023-05-14T14:31:48;9.93;;;6.85;;
75922;SDS011;64602;47.542;19.090;2023-05-14T14:36:50;10.60;;;7.60;;
75922;SDS011;64602;47.542;19.090;2023-05-14T14:41:52;11.23;;;7.07;;
75922;SDS011;64602;47.542;19.090;2023-05-14T14:46:55;9.73;;;6.72;;
75922;SDS011;64602;47.542;19.090;2023-05-14T14:51:57;10.85;;;6.70;;
75922;SDS011;64602;47.542;19.090;2023-05-14T14:56:59;13.70;;;6.53;;
75922;SDS011;64602;47.542;19.090;2023-05-14T15:02:01;9.85;;;6.05;;
75922;SDS011;64602;47.542;19.090;2023-05-14T15:07:04;6.97;;;4.55;;
75922;SDS011;64602;47.542;19.090;2023-05-14T15:12:06;5.37;;;4.00;;
75922;SDS011;64602;47.542;19.090;2023-05-14T15:17:09;6.03;;;3.45;;
75922;SDS011;64602;47.542;19.090;2023-05-14T15:22:12;6.07;;;3.78;;
75922;SDS011;64602;47.542;19.090;2023-05-14T15:27:14;5.27;;;3.30;;
75922;SDS011;64602;47.542;19.090;2023-05-14T15:32:16;9.60;;;3.73;;
75922;SDS011;64602;47.542;19.090;2023-05-14T15:37:18;8.35;;;3.95;;
75922;SDS011;64602;47.542;19.090;2023-05-14T15:42:20;6.72;;;3.80;;
75922;SDS011;64602;47.542;19.090;2023-05-14T15:47:22;6.43;;;3.80;;
75922;SDS011;64602;47.542;19.090;2023-05-14T15:52:24;5.62;;;3.47;;
75922;SDS011;64602;47.542;19.090;2023-05-14T15:57:27;7.32;;;4.07;;
75922;SDS011;64602;47.542;19.090;2023-05-14T16:02:29;4.80;;;3.30;;
75922;SDS011;64602;47.542;19.090;2023-05-14T16:07:34;6.57;;;4.07;;
75922;SDS011;64602;47.542;19.090;2023-05-14T16:12:36;6.35;;;3.92;;
75922;SDS011;64602;47.542;19.090;2023-05-14T16:17:39;7.27;;;4.00;;
75922;SDS011;64602;47.542;19.090;2023-05-14T16:22:41;5.27;;;3.40;;
75922;SDS011;64602;47.542;19.090;2023-05-14T16:27:43;4.80;;;2.90;;
75922;SDS011;64602;47.542;19.090;2023-05-14T16:32:46;4.93;;;2.90;;
75922;SDS011;64602;47.542;19.090;2023-05-14T16:37:50;5.83;;;3.17;;
75922;SDS011;64602;47.542;19.090;2023-05-14T16:42:52;5.25;;;3.37;;
75922;SDS011;64602;47.542;19.090;2023-05-14T16:47:54;5.22;;;3.20;;
75922;SDS011;64602;47.542;19.090;2023-05-14T16:52:56;4.90;;;3.37;;
75922;SDS011;64602;47.542;19.090;2023-05-14T16:57:58;4.25;;;2.90;;
75922;SDS011;64602;47.542;19.090;2023-05-14T17:03:00;4.75;;;3.20;;
75922;SDS011;64602;47.542;19.090;2023-05-14T17:08:03;5.80;;;3.00;;
75922;SDS011;64602;47.542;19.090;2023-05-14T17:13:06;4.93;;;3.20;;
75922;SDS011;64602;47.542;19.090;2023-05-14T17:18:08;3.90;;;2.65;;
75922;SDS011;64602;47.542;19.090;2023-05-14T17:23:12;4.72;;;2.72;;
75922;SDS011;64602;47.542;19.090;2023-05-14T17:28:15;4.03;;;2.80;;
75922;SDS011;64602;47.542;19.090;2023-05-14T17:33:17;5.25;;;3.47;;
75922;SDS011;64602;47.542;19.090;2023-05-14T17:38:19;5.00;;;3.40;;
75922;SDS011;64602;47.542;19.090;2023-05-14T17:43:21;5.57;;;3.43;;
75922;SDS011;64602;47.542;19.090;2023-05-14T17:48:23;4.62;;;2.97;;
75922;SDS011;64602;47.542;19.090;2023-05-14T17:53:25;5.25;;;3.83;;
75922;SDS011;64602;47.542;19.090;2023-05-14T17:58:27;6.67;;;4.07;;
75922;SDS011;64602;47.542;19.090;2023-05-14T18:03:30;8.00;;;4.13;;
75922;SDS011;64602;47.542;19.090;2023-05-14T18:08:32;5.35;;;4.10;;
75922;SDS011;64602;47.542;19.090;2023-05-14T18:13:34;8.50;;;4.68;;
75922;SDS011;64602;47.542;19.090;2023-05-14T18:18:36;6.90;;;4.43;;
75922;SDS011;64602;47.542;19.090;2023-05-14T18:23:38;6.75;;;4.15;;
75922;SDS011;64602;47.542;19.090;2023-05-14T18:28:41;5.40;;;3.97;;
75922;SDS011;64602;47.542;19.090;2023-05-14T18:33:43;6.17;;;4.57;;
75922;SDS011;64602;47.542;19.090;2023-05-14T18:38:45;6.97;;;4.57;;
75922;SDS011;64602;47.542;19.090;2023-05-14T18:43:48;5.80;;;4.20;;
75922;SDS011;64602;47.542;19.090;2023-05-14T18:48:50;6.13;;;4.43;;
75922;SDS011;64602;47.542;19.090;2023-05-14T18:53:52;7.07;;;4.80;;
75922;SDS011;64602;47.542;19.090;2023-05-14T18:58:55;5.75;;;4.32;;
75922;SDS011;64602;47.542;19.090;2023-05-14T19:03:57;6.60;;;5.03;;
75922;SDS011;64602;47.542;19.090;2023-05-14T19:08:59;9.30;;;4.93;;
75922;SDS011;64602;47.542;19.090;2023-05-14T19:14:02;6.70;;;4.70;;
75922;SDS011;64602;47.542;19.090;2023-05-14T19:19:04;9.10;;;5.30;;
75922;SDS011;64602;47.542;19.090;2023-05-14T19:24:06;8.13;;;5.57;;
75922;SDS011;64602;47.542;19.090;2023-05-14T19:29:08;10.15;;;6.03;;
75922;SDS011;64602;47.542;19.090;2023-05-14T19:34:11;9.07;;;5.22;;
75922;SDS011;64602;47.542;19.090;2023-05-14T19:39:13;8.27;;;5.50;;
75922;SDS011;64602;47.542;19.090;2023-05-14T19:44:15;9.60;;;5.57;;
75922;SDS011;64602;47.542;19.090;2023-05-14T19:49:17;7.43;;;5.00;;
75922;SDS011;64602;47.542;19.090;2023-05-14T19:54:19;8.02;;;5.00;;
75922;SDS011;64602;47.542;19.090;2023-05-14T19:59:21;7.10;;;4.70;;
75922;SDS011;64602;47.542;19.090;2023-05-14T20:04:24;7.75;;;4.78;;
75922;SDS011;64602;47.542;19.090;2023-05-14T20:09:26;8.77;;;4.68;;
75922;SDS011;64602;47.542;19.090;2023-05-14T20:14:28;6.70;;;4.83;;
75922;SDS011;64602;47.542;19.090;2023-05-14T20:19:30;7.35;;;4.40;;
75922;SDS011;64602;47.542;19.090;2023-05-14T20:24:33;6.30;;;4.28;;
75922;SDS011;64602;47.542;19.090;2023-05-14T20:29:35;8.17;;;4.60;;
75922;SDS011;64602;47.542;19.090;2023-05-14T20:34:37;6.90;;;4.47;;
75922;SDS011;64602;47.542;19.090;2023-05-14T20:39:39;6.07;;;4.20;;
75922;SDS011;64602;47.542;19.090;2023-05-14T20:44:41;7.45;;;4.45;;
75922;SDS011;64602;47.542;19.090;2023-05-14T20:49:43;6.47;;;4.00;;
75922;SDS011;64602;47.542;19.090;2023-05-14T20:54:45;5.75;;;4.22;;
75922;SDS011;64602;47.542;19.090;2023-05-14T20:59:47;6.60;;;4.30;;
75922;SDS011;64602;47.542;19.090;2023-05-14T21:04:50;7.10;;;4.53;;
75922;SDS011;64602;47.542;19.090;2023-05-14T21:09:52;6.62;;;5.07;;
75922;SDS011;64602;47.542;19.090;2023-05-14T21:14:54;7.50;;;4.82;;
75922;SDS011;64602;47.542;19.090;2023-05-14T21:19:56;8.07;;;5.10;;
75922;SDS011;64602;47.542;19.090;2023-05-14T21:24:58;7.73;;;4.93;;
75922;SDS011;64602;47.542;19.090;2023-05-14T21:30:00;8.82;;;5.28;;
75922;SDS011;64602;47.542;19.090;2023-05-14T21:35:03;8.52;;;5.65;;
75922;SDS011;64602;47.542;19.090;2023-05-14T21:40:06;6.90;;;5.30;;
75922;SDS011;64602;47.542;19.090;2023-05-14T21:45:10;8.57;;;5.12;;
75922;SDS011;64602;47.542;19.090;2023-05-14T21:50:12;8.13;;;4.82;;
75922;SDS011;64602;47.542;19.090;2023-05-14T21:55:14;5.50;;;4.20;;
75922;SDS011;64602;47.542;19.090;2023-05-14T22:00:16;7.12;;;4.00;;
75922;SDS011;64602;47.542;19.090;2023-05-14T22:05:24;5.28;;;3.70;;
75922;SDS011;64602;47.542;19.090;2023-05-14T22:10:27;4.53;;;3.57;;
75922;SDS011;64602;47.542;19.090;2023-05-14T22:15:29;4.33;;;3.40;;
75922;SDS011;64602;47.542;19.090;2023-05-14T22:20:31;6.20;;;3.37;;
75922;SDS011;64602;47.542;19.090;2023-05-14T22:25:33;6.72;;;3.17;;
75922;SDS011;64602;47.542;19.090;2023-05-14T22:30:35;6.10;;;3.90;;
75922;SDS011;64602;47.542;19.090;2023-05-14T22:35:37;4.85;;;3.40;;
75922;SDS011;64602;47.542;19.090;2023-05-14T22:40:39;4.75;;;3.30;;
75922;SDS011;64602;47.542;19.090;2023-05-14T22:45:42;5.67;;;4.10;;
75922;SDS011;64602;47.542;19.090;2023-05-14T22:50:44;5.50;;;3.95;;
75922;SDS011;64602;47.542;19.090;2023-05-14T22:55:46;8.35;;;4.37;;
75922;SDS011;64602;47.542;19.090;2023-05-14T23:00:48;5.50;;;4.30;;
75922;SDS011;64602;47.542;19.090;2023-05-14T23:05:50;6.40;;;4.67;;
75922;SDS011;64602;47.542;19.090;2023-05-14T23:10:53;6.93;;;4.93;;
75922;SDS011;64602;47.542;19.090;2023-05-14T23:15:55;6.60;;;4.75;;
75922;SDS011;64602;47.542;19.090;2023-05-14T23:20:57;6.90;;;5.03;;
75922;SDS011;64602;47.542;19.090;2023-05-14T23:25:59;6.60;;;4.85;;
75922;SDS011;64602;47.542;19.090;2023-05-14T23:31:01;6.90;;;4.82;;
75922;SDS011;64602;47.542;19.090;2023-05-14T23:36:04;6.67;;;5.10;;
75922;SDS011;64602;47.542;19.090;2023-05-14T23:41:06;7.03;;;5.37;;
75922;SDS011;64602;47.542;19.090;2023-05-14T23:46:09;8.02;;;5.55;;
75922;SDS011;64602;47.542;19.090;2023-05-14T23:51:11;8.73;;;6.23;;
75922;SDS011;64602;47.542;19.090;2023-05-14T23:56:13;10.23;;;7.13;;
